sensor_id;sensor_type;location;lat;lon;timestamp;pressure;altitude;pressure_sealevel;temperature;humidity
55291;BME280;41155;39.768;2.712;2024-02-21T00:00:04;102407.59;;;12.61;52.28
55291;BME280;41155;39.768;2.712;2024-02-21T00:02:30;102418.84;;;12.64;52.67
55291;BME280;41155;39.768;2.712;2024-02-21T00:04:56;102419.84;;;12.45;53.20
55291;BME280;41155;39.768;2.712;2024-02-21T00:07:21;102414.88;;;12.42;53.19
55291;BME280;41155;39.768;2.712;2024-02-21T00:09:47;102407.56;;;12.42;53.22
55291;BME280;41155;39.768;2.712;2024-02-21T00:12:12;102405.38;;;12.33;53.52
55291;BME280;41155;39.768;2.712;2024-02-21T00:14:41;102403.59;;;11.95;54.66
55291;BME280;41155;39.768;2.712;2024-02-21T00:17:07;102398.69;;;12.10;54.39
55291;BME280;41155;39.768;2.712;2024-02-21T00:19:34;102392.72;;;12.02;54.49
55291;BME280;41155;39.768;2.712;2024-02-21T00:22:00;102404.50;;;11.75;55.60
55291;BME280;41155;39.768;2.712;2024-02-21T00:24:25;102399.31;;;11.74;55.87
55291;BME280;41155;39.768;2.712;2024-02-21T00:26:51;102384.66;;;11.88;55.68
55291;BME280;41155;39.768;2.712;2024-02-21T00:29:16;102379.50;;;11.87;55.42
55291;BME280;41155;39.768;2.712;2024-02-21T00:31:42;102391.56;;;11.84;55.70
55291;BME280;41155;39.768;2.712;2024-02-21T00:34:07;102383.50;;;11.71;55.97
55291;BME280;41155;39.768;2.712;2024-02-21T00:36:32;102390.09;;;11.88;55.92
55291;BME280;41155;39.768;2.712;2024-02-21T00:38:58;102396.88;;;11.97;55.50
55291;BME280;41155;39.768;2.712;2024-02-21T00:41:23;102382.97;;;11.94;55.72
55291;BME280;41155;39.768;2.712;2024-02-21T00:43:49;102373.22;;;11.54;56.42
55291;BME280;41155;39.768;2.712;2024-02-21T00:46:15;102362.59;;;11.15;57.63
55291;BME280;41155;39.768;2.712;2024-02-21T00:48:41;102366.03;;;11.35;57.72
55291;BME280;41155;39.768;2.712;2024-02-21T00:51:06;102379.47;;;11.48;57.52
55291;BME280;41155;39.768;2.712;2024-02-21T00:53:32;102366.69;;;11.69;56.72
55291;BME280;41155;39.768;2.712;2024-02-21T00:55:57;102377.84;;;11.79;56.43
55291;BME280;41155;39.768;2.712;2024-02-21T00:58:23;102377.00;;;11.79;56.37
55291;BME280;41155;39.768;2.712;2024-02-21T01:00:49;102379.69;;;11.47;57.15
55291;BME280;41155;39.768;2.712;2024-02-21T01:03:14;102366.63;;;11.44;57.14
55291;BME280;41155;39.768;2.712;2024-02-21T01:05:40;102368.78;;;11.22;58.02
55291;BME280;41155;39.768;2.712;2024-02-21T01:08:05;102367.41;;;11.06;58.45
55291;BME280;41155;39.768;2.712;2024-02-21T01:10:31;102368.44;;;11.05;58.73
55291;BME280;41155;39.768;2.712;2024-02-21T01:12:56;102364.91;;;11.11;58.78
55291;BME280;41155;39.768;2.712;2024-02-21T01:15:22;102336.81;;;11.12;58.76
55291;BME280;41155;39.768;2.712;2024-02-21T01:17:47;102353.53;;;11.41;58.18
55291;BME280;41155;39.768;2.712;2024-02-21T01:20:15;102343.31;;;11.43;58.25
55291;BME280;41155;39.768;2.712;2024-02-21T01:22:40;102361.53;;;11.61;57.72
55291;BME280;41155;39.768;2.712;2024-02-21T01:25:06;102349.06;;;11.53;57.69
55291;BME280;41155;39.768;2.712;2024-02-21T01:27:32;102345.06;;;11.24;58.10
55291;BME280;41155;39.768;2.712;2024-02-21T01:29:57;102338.19;;;11.28;57.69
55291;BME280;41155;39.768;2.712;2024-02-21T01:32:23;102342.13;;;11.32;57.86
55291;BME280;41155;39.768;2.712;2024-02-21T01:34:52;102335.78;;;11.51;57.57
55291;BME280;41155;39.768;2.712;2024-02-21T01:37:18;102342.41;;;11.56;57.34
55291;BME280;41155;39.768;2.712;2024-02-21T01:39:43;102338.94;;;11.42;57.57
55291;BME280;41155;39.768;2.712;2024-02-21T01:42:09;102357.44;;;11.45;58.08
55291;BME280;41155;39.768;2.712;2024-02-21T01:44:34;102347.63;;;11.50;57.81
55291;BME280;41155;39.768;2.712;2024-02-21T01:47:00;102347.00;;;11.48;57.63
55291;BME280;41155;39.768;2.712;2024-02-21T01:49:26;102349.63;;;11.30;57.75
55291;BME280;41155;39.768;2.712;2024-02-21T01:51:52;102338.75;;;10.98;58.52
55291;BME280;41155;39.768;2.712;2024-02-21T01:54:18;102348.38;;;10.81;59.24
55291;BME280;41155;39.768;2.712;2024-02-21T01:56:44;102337.97;;;10.84;59.48
55291;BME280;41155;39.768;2.712;2024-02-21T01:59:12;102339.22;;;10.89;59.31
55291;BME280;41155;39.768;2.712;2024-02-21T02:01:39;102335.22;;;10.98;59.10
55291;BME280;41155;39.768;2.712;2024-02-21T02:04:05;102325.63;;;11.02;58.89
55291;BME280;41155;39.768;2.712;2024-02-21T02:06:31;102336.44;;;11.08;59.00
55291;BME280;41155;39.768;2.712;2024-02-21T02:08:57;102323.25;;;11.19;58.92
55291;BME280;41155;39.768;2.712;2024-02-21T02:11:22;102334.88;;;11.26;58.75
55291;BME280;41155;39.768;2.712;2024-02-21T02:13:48;102338.19;;;11.28;58.58
55291;BME280;41155;39.768;2.712;2024-02-21T02:16:13;102315.38;;;11.17;58.31
55291;BME280;41155;39.768;2.712;2024-02-21T02:18:39;102341.75;;;11.22;57.98
55291;BME280;41155;39.768;2.712;2024-02-21T02:21:10;102335.56;;;11.15;58.46
55291;BME280;41155;39.768;2.712;2024-02-21T02:23:38;102325.03;;;10.93;58.93
55291;BME280;41155;39.768;2.712;2024-02-21T02:26:03;102337.13;;;10.84;59.31
55291;BME280;41155;39.768;2.712;2024-02-21T02:28:29;102331.94;;;10.89;59.45
55291;BME280;41155;39.768;2.712;2024-02-21T02:30:54;102328.81;;;10.79;59.74
55291;BME280;41155;39.768;2.712;2024-02-21T02:33:20;102327.59;;;10.75;60.00
55291;BME280;41155;39.768;2.712;2024-02-21T02:35:46;102322.38;;;10.86;59.78
55291;BME280;41155;39.768;2.712;2024-02-21T02:38:11;102313.06;;;10.69;59.71
55291;BME280;41155;39.768;2.712;2024-02-21T02:40:38;102326.56;;;10.76;59.53
55291;BME280;41155;39.768;2.712;2024-02-21T02:43:04;102322.56;;;10.92;59.05
55291;BME280;41155;39.768;2.712;2024-02-21T02:45:30;102312.41;;;10.80;59.37
55291;BME280;41155;39.768;2.712;2024-02-21T02:47:56;102317.63;;;10.75;59.51
55291;BME280;41155;39.768;2.712;2024-02-21T02:50:26;102309.31;;;10.77;59.50
55291;BME280;41155;39.768;2.712;2024-02-21T02:52:53;102325.94;;;10.80;59.48
55291;BME280;41155;39.768;2.712;2024-02-21T02:55:18;102317.66;;;10.69;60.05
55291;BME280;41155;39.768;2.712;2024-02-21T02:57:44;102311.50;;;10.35;60.22
55291;BME280;41155;39.768;2.712;2024-02-21T03:00:13;102301.53;;;10.35;60.78
55291;BME280;41155;39.768;2.712;2024-02-21T03:02:40;102282.88;;;10.27;60.57
55291;BME280;41155;39.768;2.712;2024-02-21T03:05:20;102300.69;;;10.48;60.57
55291;BME280;41155;39.768;2.712;2024-02-21T03:07:47;102294.22;;;10.56;60.06
55291;BME280;41155;39.768;2.712;2024-02-21T03:10:13;102303.75;;;10.65;60.17
55291;BME280;41155;39.768;2.712;2024-02-21T03:12:39;102301.47;;;10.62;59.96
55291;BME280;41155;39.768;2.712;2024-02-21T03:15:05;102300.81;;;10.67;60.00
55291;BME280;41155;39.768;2.712;2024-02-21T03:17:32;102298.78;;;10.62;60.42
55291;BME280;41155;39.768;2.712;2024-02-21T03:19:59;102293.78;;;10.66;60.35
55291;BME280;41155;39.768;2.712;2024-02-21T03:22:25;102281.47;;;10.70;59.74
55291;BME280;41155;39.768;2.712;2024-02-21T03:24:50;102283.13;;;10.77;59.98
55291;BME280;41155;39.768;2.712;2024-02-21T03:27:16;102265.06;;;10.71;59.79
55291;BME280;41155;39.768;2.712;2024-02-21T03:29:42;102270.50;;;10.58;60.15
55291;BME280;41155;39.768;2.712;2024-02-21T03:32:07;102272.81;;;10.54;60.47
55291;BME280;41155;39.768;2.712;2024-02-21T03:34:33;102266.16;;;10.57;60.32
55291;BME280;41155;39.768;2.712;2024-02-21T03:36:58;102254.53;;;10.50;60.22
55291;BME280;41155;39.768;2.712;2024-02-21T03:39:24;102262.25;;;10.46;60.36
55291;BME280;41155;39.768;2.712;2024-02-21T03:41:50;102258.31;;;10.35;60.57
55291;BME280;41155;39.768;2.712;2024-02-21T03:44:15;102261.88;;;10.29;60.77
55291;BME280;41155;39.768;2.712;2024-02-21T03:46:41;102261.44;;;10.32;60.76
55291;BME280;41155;39.768;2.712;2024-02-21T03:49:06;102264.34;;;10.17;60.88
55291;BME280;41155;39.768;2.712;2024-02-21T03:51:32;102260.84;;;10.10;61.35
55291;BME280;41155;39.768;2.712;2024-02-21T03:53:57;102251.72;;;9.91;61.78
55291;BME280;41155;39.768;2.712;2024-02-21T03:56:23;102258.16;;;10.10;61.83
55291;BME280;41155;39.768;2.712;2024-02-21T03:58:50;102267.88;;;10.25;61.71
55291;BME280;41155;39.768;2.712;2024-02-21T04:01:15;102265.19;;;10.25;61.64
55291;BME280;41155;39.768;2.712;2024-02-21T04:03:43;102266.22;;;10.37;61.19
55291;BME280;41155;39.768;2.712;2024-02-21T04:06:08;102265.41;;;10.36;61.06
55291;BME280;41155;39.768;2.712;2024-02-21T04:08:35;102258.56;;;10.27;60.93
55291;BME280;41155;39.768;2.712;2024-02-21T04:11:00;102271.03;;;10.02;61.45
55291;BME280;41155;39.768;2.712;2024-02-21T04:13:26;102267.28;;;10.03;61.65
55291;BME280;41155;39.768;2.712;2024-02-21T04:15:52;102257.34;;;9.90;62.00
55291;BME280;41155;39.768;2.712;2024-02-21T04:18:17;102271.88;;;9.89;62.46
55291;BME280;41155;39.768;2.712;2024-02-21T04:20:42;102262.13;;;9.81;62.40
55291;BME280;41155;39.768;2.712;2024-02-21T04:23:08;102265.88;;;9.87;62.31
55291;BME280;41155;39.768;2.712;2024-02-21T04:25:34;102250.50;;;9.67;62.77
55291;BME280;41155;39.768;2.712;2024-02-21T04:27:59;102268.34;;;9.82;62.46
55291;BME280;41155;39.768;2.712;2024-02-21T04:30:25;102256.13;;;9.72;62.81
55291;BME280;41155;39.768;2.712;2024-02-21T04:32:51;102259.63;;;9.80;62.85
55291;BME280;41155;39.768;2.712;2024-02-21T04:35:16;102253.59;;;9.98;62.20
55291;BME280;41155;39.768;2.712;2024-02-21T04:37:42;102254.03;;;9.88;61.97
55291;BME280;41155;39.768;2.712;2024-02-21T04:40:08;102252.78;;;9.84;62.00
55291;BME280;41155;39.768;2.712;2024-02-21T04:42:34;102230.19;;;9.78;62.31
55291;BME280;41155;39.768;2.712;2024-02-21T04:45:00;102248.44;;;9.76;62.77
55291;BME280;41155;39.768;2.712;2024-02-21T04:47:25;102227.69;;;9.70;63.29
55291;BME280;41155;39.768;2.712;2024-02-21T04:49:51;102232.03;;;9.71;62.54
55291;BME280;41155;39.768;2.712;2024-02-21T04:52:17;102229.97;;;9.73;62.53
55291;BME280;41155;39.768;2.712;2024-02-21T04:54:42;102254.44;;;9.85;62.38
55291;BME280;41155;39.768;2.712;2024-02-21T04:57:08;102254.25;;;9.73;62.52
55291;BME280;41155;39.768;2.712;2024-02-21T04:59:35;102258.38;;;9.69;62.75
55291;BME280;41155;39.768;2.712;2024-02-21T05:02:01;102257.13;;;9.51;62.98
55291;BME280;41155;39.768;2.712;2024-02-21T05:04:26;102260.66;;;9.65;63.05
55291;BME280;41155;39.768;2.712;2024-02-21T05:06:52;102249.06;;;9.65;62.72
55291;BME280;41155;39.768;2.712;2024-02-21T05:09:17;102280.78;;;9.83;62.52
55291;BME280;41155;39.768;2.712;2024-02-21T05:11:43;102273.75;;;9.62;62.36
55291;BME280;41155;39.768;2.712;2024-02-21T05:14:09;102277.66;;;9.66;62.67
55291;BME280;41155;39.768;2.712;2024-02-21T05:16:34;102279.94;;;9.69;62.48
55291;BME280;41155;39.768;2.712;2024-02-21T05:18:59;102277.06;;;9.70;62.70
55291;BME280;41155;39.768;2.712;2024-02-21T05:21:26;102275.38;;;9.63;62.71
55291;BME280;41155;39.768;2.712;2024-02-21T05:23:53;102288.47;;;9.72;62.59
55291;BME280;41155;39.768;2.712;2024-02-21T05:26:25;102291.38;;;9.71;62.24
55291;BME280;41155;39.768;2.712;2024-02-21T05:28:51;102278.28;;;9.74;62.29
55291;BME280;41155;39.768;2.712;2024-02-21T05:31:20;102287.84;;;9.70;62.44
55291;BME280;41155;39.768;2.712;2024-02-21T05:33:46;102288.69;;;9.64;62.55
55291;BME280;41155;39.768;2.712;2024-02-21T05:36:12;102301.53;;;9.62;62.85
55291;BME280;41155;39.768;2.712;2024-02-21T05:38:38;102299.06;;;9.67;62.81
55291;BME280;41155;39.768;2.712;2024-02-21T05:41:04;102273.72;;;9.48;62.47
55291;BME280;41155;39.768;2.712;2024-02-21T05:43:29;102308.19;;;9.66;62.36
55291;BME280;41155;39.768;2.712;2024-02-21T05:45:55;102306.72;;;9.70;62.15
55291;BME280;41155;39.768;2.712;2024-02-21T05:48:22;102316.66;;;9.57;62.62
55291;BME280;41155;39.768;2.712;2024-02-21T05:50:47;102327.03;;;9.53;62.60
55291;BME280;41155;39.768;2.712;2024-02-21T05:53:13;102296.50;;;9.33;63.02
55291;BME280;41155;39.768;2.712;2024-02-21T05:55:39;102320.38;;;9.42;62.79
55291;BME280;41155;39.768;2.712;2024-02-21T05:58:05;102333.25;;;9.40;63.14
55291;BME280;41155;39.768;2.712;2024-02-21T06:00:31;102330.56;;;9.40;63.32
55291;BME280;41155;39.768;2.712;2024-02-21T06:02:57;102332.19;;;9.35;63.51
55291;BME280;41155;39.768;2.712;2024-02-21T06:05:23;102322.84;;;9.37;63.27
55291;BME280;41155;39.768;2.712;2024-02-21T06:07:49;102347.97;;;9.44;63.34
55291;BME280;41155;39.768;2.712;2024-02-21T06:10:14;102347.78;;;9.46;63.49
55291;BME280;41155;39.768;2.712;2024-02-21T06:12:40;102333.84;;;9.36;63.34
55291;BME280;41155;39.768;2.712;2024-02-21T06:15:06;102340.88;;;9.30;63.23
55291;BME280;41155;39.768;2.712;2024-02-21T06:17:32;102330.69;;;9.19;63.50
55291;BME280;41155;39.768;2.712;2024-02-21T06:19:58;102341.06;;;9.22;63.80
55291;BME280;41155;39.768;2.712;2024-02-21T06:22:23;102359.13;;;9.28;64.10
55291;BME280;41155;39.768;2.712;2024-02-21T06:24:49;102331.31;;;9.14;64.21
55291;BME280;41155;39.768;2.712;2024-02-21T06:27:15;102353.91;;;9.20;64.60
55291;BME280;41155;39.768;2.712;2024-02-21T06:29:41;102352.50;;;9.31;64.37
55291;BME280;41155;39.768;2.712;2024-02-21T06:32:07;102357.28;;;9.35;64.03
55291;BME280;41155;39.768;2.712;2024-02-21T06:34:33;102347.50;;;9.34;64.08
55291;BME280;41155;39.768;2.712;2024-02-21T06:36:58;102360.41;;;9.45;63.65
55291;BME280;41155;39.768;2.712;2024-02-21T06:39:24;102346.50;;;9.35;63.54
55291;BME280;41155;39.768;2.712;2024-02-21T06:41:49;102337.72;;;9.20;63.87
55291;BME280;41155;39.768;2.712;2024-02-21T06:44:19;102358.28;;;9.27;63.73
55291;BME280;41155;39.768;2.712;2024-02-21T06:46:45;102361.03;;;9.41;63.73
55291;BME280;41155;39.768;2.712;2024-02-21T06:49:10;102357.03;;;9.23;63.88
55291;BME280;41155;39.768;2.712;2024-02-21T06:51:44;102356.75;;;9.05;64.55
55291;BME280;41155;39.768;2.712;2024-02-21T06:54:09;102362.38;;;9.10;64.38
55291;BME280;41155;39.768;2.712;2024-02-21T06:56:36;102350.34;;;9.13;64.40
55291;BME280;41155;39.768;2.712;2024-02-21T06:59:02;102361.16;;;9.19;65.12
55291;BME280;41155;39.768;2.712;2024-02-21T07:01:31;102347.66;;;9.13;64.79
55291;BME280;41155;39.768;2.712;2024-02-21T07:03:56;102356.81;;;9.25;65.25
55291;BME280;41155;39.768;2.712;2024-02-21T07:06:22;102330.44;;;9.14;64.63
55291;BME280;41155;39.768;2.712;2024-02-21T07:08:48;102357.47;;;9.34;64.59
55291;BME280;41155;39.768;2.712;2024-02-21T07:11:13;102352.09;;;9.34;64.56
55291;BME280;41155;39.768;2.712;2024-02-21T07:13:38;102347.75;;;9.33;64.26
55291;BME280;41155;39.768;2.712;2024-02-21T07:16:05;102341.72;;;9.37;63.87
55291;BME280;41155;39.768;2.712;2024-02-21T07:18:30;102336.94;;;9.33;64.02
55291;BME280;41155;39.768;2.712;2024-02-21T07:20:56;102342.56;;;9.38;63.96
55291;BME280;41155;39.768;2.712;2024-02-21T07:23:21;102336.72;;;9.27;64.85
55291;BME280;41155;39.768;2.712;2024-02-21T07:25:47;102343.59;;;9.37;64.73
55291;BME280;41155;39.768;2.712;2024-02-21T07:28:12;102340.94;;;9.50;64.54
55291;BME280;41155;39.768;2.712;2024-02-21T07:30:39;102354.22;;;9.58;64.07
55291;BME280;41155;39.768;2.712;2024-02-21T07:33:05;102351.94;;;9.55;64.42
55291;BME280;41155;39.768;2.712;2024-02-21T07:35:32;102358.59;;;9.66;64.00
55291;BME280;41155;39.768;2.712;2024-02-21T07:37:58;102357.34;;;9.68;63.66
55291;BME280;41155;39.768;2.712;2024-02-21T07:40:23;102358.41;;;9.67;63.06
55291;BME280;41155;39.768;2.712;2024-02-21T07:42:49;102371.88;;;9.67;63.10
55291;BME280;41155;39.768;2.712;2024-02-21T07:45:14;102361.84;;;9.35;63.40
55291;BME280;41155;39.768;2.712;2024-02-21T07:47:40;102374.13;;;9.50;64.01
55291;BME280;41155;39.768;2.712;2024-02-21T07:50:06;102385.47;;;9.33;64.09
55291;BME280;41155;39.768;2.712;2024-02-21T07:52:32;102379.09;;;8.99;65.31
55291;BME280;41155;39.768;2.712;2024-02-21T07:54:57;102380.69;;;8.80;66.02
55291;BME280;41155;39.768;2.712;2024-02-21T07:57:23;102380.97;;;8.64;66.66
55291;BME280;41155;39.768;2.712;2024-02-21T07:59:48;102387.41;;;8.63;67.51
55291;BME280;41155;39.768;2.712;2024-02-21T08:02:14;102395.22;;;8.86;67.53
55291;BME280;41155;39.768;2.712;2024-02-21T08:04:40;102387.66;;;9.09;66.91
55291;BME280;41155;39.768;2.712;2024-02-21T08:07:06;102391.69;;;9.26;66.50
55291;BME280;41155;39.768;2.712;2024-02-21T08:09:31;102409.81;;;9.53;66.11
55291;BME280;41155;39.768;2.712;2024-02-21T08:11:57;102404.25;;;9.67;65.86
55291;BME280;41155;39.768;2.712;2024-02-21T08:14:23;102394.97;;;9.90;65.45
55291;BME280;41155;39.768;2.712;2024-02-21T08:16:50;102397.69;;;10.16;64.75
55291;BME280;41155;39.768;2.712;2024-02-21T08:19:16;102395.00;;;10.43;63.78
55291;BME280;41155;39.768;2.712;2024-02-21T08:21:42;102398.47;;;10.70;63.17
55291;BME280;41155;39.768;2.712;2024-02-21T08:24:07;102388.03;;;11.00;62.28
55291;BME280;41155;39.768;2.712;2024-02-21T08:26:33;102397.28;;;11.63;61.11
55291;BME280;41155;39.768;2.712;2024-02-21T08:28:58;102408.13;;;12.70;58.89
55291;BME280;41155;39.768;2.712;2024-02-21T08:31:25;102411.84;;;14.44;53.62
55291;BME280;41155;39.768;2.712;2024-02-21T08:33:59;102394.88;;;16.49;48.14
55291;BME280;41155;39.768;2.712;2024-02-21T08:36:30;102394.75;;;17.98;43.27
55291;BME280;41155;39.768;2.712;2024-02-21T08:38:56;102402.34;;;18.66;41.35
55291;BME280;41155;39.768;2.712;2024-02-21T08:41:23;102388.00;;;19.84;40.43
55291;BME280;41155;39.768;2.712;2024-02-21T08:43:50;102375.72;;;21.13;36.20
55291;BME280;41155;39.768;2.712;2024-02-21T08:46:16;102379.16;;;21.39;35.03
55291;BME280;41155;39.768;2.712;2024-02-21T08:48:43;102386.00;;;22.74;32.98
55291;BME280;41155;39.768;2.712;2024-02-21T08:51:08;102374.50;;;23.90;31.02
55291;BME280;41155;39.768;2.712;2024-02-21T08:53:34;102373.19;;;24.76;29.70
55291;BME280;41155;39.768;2.712;2024-02-21T08:55:59;102369.47;;;25.08;28.55
55291;BME280;41155;39.768;2.712;2024-02-21T08:58:25;102374.91;;;26.08;26.27
55291;BME280;41155;39.768;2.712;2024-02-21T09:00:52;102367.84;;;26.25;26.16
55291;BME280;41155;39.768;2.712;2024-02-21T09:03:17;102378.66;;;26.83;26.26
55291;BME280;41155;39.768;2.712;2024-02-21T09:05:45;102380.06;;;26.64;25.80
55291;BME280;41155;39.768;2.712;2024-02-21T09:08:11;102394.31;;;27.54;25.26
55291;BME280;41155;39.768;2.712;2024-02-21T09:10:37;102387.84;;;28.14;24.28
55291;BME280;41155;39.768;2.712;2024-02-21T09:13:03;102386.09;;;28.87;23.33
55291;BME280;41155;39.768;2.712;2024-02-21T09:15:29;102390.78;;;28.74;23.12
55291;BME280;41155;39.768;2.712;2024-02-21T09:17:54;102393.13;;;28.07;23.74
55291;BME280;41155;39.768;2.712;2024-02-21T09:20:20;102389.69;;;28.02;23.74
55291;BME280;41155;39.768;2.712;2024-02-21T09:22:48;102389.78;;;27.01;24.32
55291;BME280;41155;39.768;2.712;2024-02-21T09:25:14;102385.25;;;28.18;23.43
55291;BME280;41155;39.768;2.712;2024-02-21T09:27:39;102378.63;;;27.58;23.85
55291;BME280;41155;39.768;2.712;2024-02-21T09:30:05;102378.47;;;27.29;23.79
55291;BME280;41155;39.768;2.712;2024-02-21T09:32:31;102376.41;;;26.94;24.26
55291;BME280;41155;39.768;2.712;2024-02-21T09:34:58;102379.44;;;27.50;24.21
55291;BME280;41155;39.768;2.712;2024-02-21T09:37:23;102368.63;;;28.09;23.77
55291;BME280;41155;39.768;2.712;2024-02-21T09:39:49;102377.25;;;27.03;24.25
55291;BME280;41155;39.768;2.712;2024-02-21T09:42:20;102360.91;;;25.23;26.44
55291;BME280;41155;39.768;2.712;2024-02-21T09:44:46;102375.56;;;23.76;28.42
55291;BME280;41155;39.768;2.712;2024-02-21T09:47:22;102377.69;;;22.55;30.27
55291;BME280;41155;39.768;2.712;2024-02-21T09:49:49;102359.19;;;20.43;32.25
55291;BME280;41155;39.768;2.712;2024-02-21T09:52:15;102375.94;;;20.21;33.05
55291;BME280;41155;39.768;2.712;2024-02-21T09:54:42;102375.41;;;19.83;33.89
55291;BME280;41155;39.768;2.712;2024-02-21T09:57:10;102371.31;;;20.01;34.08
55291;BME280;41155;39.768;2.712;2024-02-21T09:59:37;102364.19;;;19.80;34.01
55291;BME280;41155;39.768;2.712;2024-02-21T10:02:03;102352.13;;;19.66;34.48
55291;BME280;41155;39.768;2.712;2024-02-21T10:04:30;102327.94;;;19.42;35.07
55291;BME280;41155;39.768;2.712;2024-02-21T10:06:56;102348.16;;;19.15;34.98
55291;BME280;41155;39.768;2.712;2024-02-21T10:09:27;102344.75;;;18.83;35.90
55291;BME280;41155;39.768;2.712;2024-02-21T10:11:54;102342.66;;;19.10;34.95
55291;BME280;41155;39.768;2.712;2024-02-21T10:14:19;102335.75;;;18.92;34.35
55291;BME280;41155;39.768;2.712;2024-02-21T10:16:47;102346.34;;;18.73;34.91
55291;BME280;41155;39.768;2.712;2024-02-21T10:19:19;102338.78;;;18.96;34.81
55291;BME280;41155;39.768;2.712;2024-02-21T10:22:03;102347.59;;;19.13;34.58
55291;BME280;41155;39.768;2.712;2024-02-21T10:24:33;102334.47;;;19.20;33.88
55291;BME280;41155;39.768;2.712;2024-02-21T10:27:03;102331.75;;;19.41;33.81
55291;BME280;41155;39.768;2.712;2024-02-21T10:29:32;102340.06;;;19.72;33.48
55291;BME280;41155;39.768;2.712;2024-02-21T10:32:24;102341.69;;;19.73;33.64
55291;BME280;41155;39.768;2.712;2024-02-21T10:35:01;102345.28;;;19.83;32.56
55291;BME280;41155;39.768;2.712;2024-02-21T10:37:26;102345.53;;;19.92;31.58
55291;BME280;41155;39.768;2.712;2024-02-21T10:39:53;102331.53;;;19.99;32.66
55291;BME280;41155;39.768;2.712;2024-02-21T10:42:21;102332.41;;;19.99;32.61
55291;BME280;41155;39.768;2.712;2024-02-21T10:44:50;102337.28;;;20.07;32.16
55291;BME280;41155;39.768;2.712;2024-02-21T10:47:17;102325.53;;;20.02;31.93
55291;BME280;41155;39.768;2.712;2024-02-21T10:49:50;102327.19;;;20.08;31.84
55291;BME280;41155;39.768;2.712;2024-02-21T10:52:56;102332.06;;;20.26;31.54
55291;BME280;41155;39.768;2.712;2024-02-21T10:55:36;102324.41;;;20.28;32.28
55291;BME280;41155;39.768;2.712;2024-02-21T10:58:04;102323.28;;;20.35;32.29
55291;BME280;41155;39.768;2.712;2024-02-21T11:00:30;102314.78;;;20.31;32.38
55291;BME280;41155;39.768;2.712;2024-02-21T11:02:57;102312.00;;;20.46;32.10
55291;BME280;41155;39.768;2.712;2024-02-21T11:05:24;102297.22;;;20.32;31.61
55291;BME280;41155;39.768;2.712;2024-02-21T11:07:51;102306.53;;;20.36;31.56
55291;BME280;41155;39.768;2.712;2024-02-21T11:10:23;102305.16;;;20.44;31.31
55291;BME280;41155;39.768;2.712;2024-02-21T11:12:53;102305.19;;;20.28;32.10
55291;BME280;41155;39.768;2.712;2024-02-21T11:15:19;102304.88;;;20.45;32.12
55291;BME280;41155;39.768;2.712;2024-02-21T11:17:54;102300.97;;;20.67;32.16
55291;BME280;41155;39.768;2.712;2024-02-21T11:20:20;102285.00;;;20.74;33.61
55291;BME280;41155;39.768;2.712;2024-02-21T11:22:46;102286.03;;;20.93;35.13
55291;BME280;41155;39.768;2.712;2024-02-21T11:25:21;102284.88;;;20.99;35.27
55291;BME280;41155;39.768;2.712;2024-02-21T11:27:47;102276.41;;;20.96;36.43
55291;BME280;41155;39.768;2.712;2024-02-21T11:30:12;102266.75;;;21.04;36.75
55291;BME280;41155;39.768;2.712;2024-02-21T11:32:40;102270.00;;;21.06;37.46
55291;BME280;41155;39.768;2.712;2024-02-21T11:35:06;102264.78;;;21.09;37.68
55291;BME280;41155;39.768;2.712;2024-02-21T11:37:33;102258.94;;;21.21;37.77
55291;BME280;41155;39.768;2.712;2024-02-21T11:39:59;102257.06;;;21.11;38.80
55291;BME280;41155;39.768;2.712;2024-02-21T11:42:26;102234.16;;;20.92;37.95
55291;BME280;41155;39.768;2.712;2024-02-21T11:44:52;102247.47;;;21.09;38.25
55291;BME280;41155;39.768;2.712;2024-02-21T11:47:18;102256.38;;;20.95;37.31
55291;BME280;41155;39.768;2.712;2024-02-21T11:49:48;102248.97;;;20.26;38.63
55291;BME280;41155;39.768;2.712;2024-02-21T11:52:15;102244.34;;;20.11;39.76
55291;BME280;41155;39.768;2.712;2024-02-21T11:54:44;102252.91;;;19.48;40.83
55291;BME280;41155;39.768;2.712;2024-02-21T11:57:10;102263.84;;;19.38;41.40
55291;BME280;41155;39.768;2.712;2024-02-21T11:59:36;102256.16;;;19.04;42.02
55291;BME280;41155;39.768;2.712;2024-02-21T12:02:03;102264.09;;;19.16;43.23
55291;BME280;41155;39.768;2.712;2024-02-21T12:04:29;102274.25;;;19.26;43.10
55291;BME280;41155;39.768;2.712;2024-02-21T12:06:57;102260.28;;;19.32;43.45
55291;BME280;41155;39.768;2.712;2024-02-21T12:09:24;102264.41;;;19.45;42.99
55291;BME280;41155;39.768;2.712;2024-02-21T12:12:00;102261.13;;;19.69;42.38
55291;BME280;41155;39.768;2.712;2024-02-21T12:14:28;102251.22;;;19.16;43.25
55291;BME280;41155;39.768;2.712;2024-02-21T12:16:54;102242.19;;;19.01;43.65
55291;BME280;41155;39.768;2.712;2024-02-21T12:19:20;102227.69;;;19.36;44.40
55291;BME280;41155;39.768;2.712;2024-02-21T12:21:48;102235.09;;;19.71;44.05
55291;BME280;41155;39.768;2.712;2024-02-21T12:24:17;102240.56;;;19.92;43.95
55291;BME280;41155;39.768;2.712;2024-02-21T12:26:43;102220.75;;;20.15;43.71
55291;BME280;41155;39.768;2.712;2024-02-21T12:29:09;102213.31;;;20.21;42.68
55291;BME280;41155;39.768;2.712;2024-02-21T12:31:38;102199.03;;;20.34;42.48
55291;BME280;41155;39.768;2.712;2024-02-21T12:34:04;102208.41;;;20.23;42.38
55291;BME280;41155;39.768;2.712;2024-02-21T12:36:33;102201.88;;;20.08;42.71
55291;BME280;41155;39.768;2.712;2024-02-21T12:38:59;102203.34;;;19.24;40.77
55291;BME280;41155;39.768;2.712;2024-02-21T12:41:25;102182.75;;;18.91;41.92
55291;BME280;41155;39.768;2.712;2024-02-21T12:43:52;102179.47;;;18.89;42.15
55291;BME280;41155;39.768;2.712;2024-02-21T12:46:18;102190.03;;;18.60;41.76
55291;BME280;41155;39.768;2.712;2024-02-21T12:48:43;102169.53;;;18.62;40.84